Time;durP1;ratioP1;P1;durP2;ratioP2;P2;SDS_P1;SDS_P2;PMS_P1;PMS_P2;Temp;Humidity;BMP_temperature;BMP_pressure;BME280_temperature;BME280_humidity;BME280_pressure;Samples;Min_cycle;Max_cycle;Signal;HPM_P1;HPM_P2
2022/09/20 00:00:10;;;;;;;956.63;892.33;;;;;;;11.69;71.92;101134.53;689027;28;46309;-63
2022/09/20 00:00:32;;;;;;;954.85;890.80;;;;;;;11.70;72.38;101132.66;683553;28;115022;-62
2022/09/20 00:01:06;;;;;;;947.28;883.47;;;;;;;11.71;72.07;101142.47;687296;28;21523;-64
2022/09/20 00:01:30;;;;;;;971.22;906.47;;;;;;;11.69;72.08;101129.13;682893;28;137399;-64
2022/09/20 00:01:52;;;;;;;962.40;898.00;;;;;;;11.68;72.13;101132.00;683455;28;115166;-65
2022/09/20 00:02:13;;;;;;;954.65;890.45;;;;;;;11.71;72.01;101137.06;687219;28;23383;-65
2022/09/20 00:02:34;;;;;;;959.33;894.95;;;;;;;11.71;72.32;101135.19;686553;28;45247;-65
2022/09/20 00:02:57;;;;;;;951.03;887.00;;;;;;;11.72;72.40;101136.00;687324;28;22517;-63
2022/09/20 00:03:18;;;;;;;955.67;891.47;;;;;;;11.71;72.09;101137.06;687495;28;46402;-63
2022/09/20 00:03:41;;;;;;;955.88;891.63;;;;;;;11.71;72.27;101147.88;689411;28;45261;-65
2022/09/20 00:04:03;;;;;;;942.72;878.95;;;;;;;11.71;72.11;101134.34;688739;28;69419;-64
2022/09/20 00:04:26;;;;;;;949.35;885.30;;;;;;;11.72;72.13;101139.59;689351;28;46293;-64
2022/09/20 00:04:47;;;;;;;953.05;888.97;;;;;;;11.72;71.86;101141.44;688645;28;70455;-65
2022/09/20 00:05:09;;;;;;;956.28;892.10;;;;;;;11.71;72.20;101137.06;690151;28;23453;-65
2022/09/20 00:05:32;;;;;;;954.35;890.17;;;;;;;11.71;71.93;101142.47;689400;28;44393;-62
2022/09/20 00:05:54;;;;;;;942.53;878.65;;;;;;;11.70;72.25;101141.59;688531;28;69385;-64
2022/09/20 00:06:17;;;;;;;955.08;890.85;;;;;;;11.72;72.03;101136.00;689440;28;45133;-62
2022/09/20 00:06:39;;;;;;;959.88;895.53;;;;;;;11.73;72.19;101140.41;687849;28;92130;-65
2022/09/20 00:07:00;;;;;;;959.75;895.22;;;;;;;11.71;71.70;101137.88;689026;28;23482;-63
2022/09/20 00:07:22;;;;;;;953.47;889.08;;;;;;;11.72;72.17;101141.44;690034;28;21314;-64
2022/09/20 00:07:44;;;;;;;959.92;895.63;;;;;;;11.72;72.21;101141.44;689282;28;46389;-65
2022/09/20 00:08:09;;;;;;;952.50;888.58;;;;;;;11.72;72.21;101138.72;689510;28;44372;-65
2022/09/20 00:08:31;;;;;;;949.00;885.13;;;;;;;11.72;72.02;101142.28;686792;28;113524;-64
2022/09/20 00:08:53;;;;;;;959.05;894.83;;;;;;;11.71;71.92;101143.28;687132;28;37699;-63
2022/09/20 00:09:14;;;;;;;970.45;905.78;;;;;;;11.73;72.10;101140.41;687876;28;46394;-64
2022/09/20 00:09:36;;;;;;;979.03;913.90;;;;;;;11.73;72.02;101143.97;689342;28;45223;-64
2022/09/20 00:09:57;;;;;;;960.72;896.40;;;;;;;11.73;72.25;101143.97;686960;28;22423;-64
2022/09/20 00:10:21;;;;;;;965.05;900.63;;;;;;;11.75;71.90;101138.38;687263;28;23487;-64
2022/09/20 00:10:42;;;;;;;968.03;903.33;;;;;;;11.73;72.18;101146.66;684759;28;92114;-62
2022/09/20 00:11:05;;;;;;;965.55;901.03;;;;;;;11.76;71.89;101144.66;683851;28;47666;-65
2022/09/20 00:11:28;;;;;;;973.42;908.63;;;;;;;11.75;71.69;101146.50;679864;29;69433;-65
2022/09/20 00:11:51;;;;;;;951.50;887.45;;;;;;;11.76;72.10;101144.66;680889;28;69418;-63
2022/09/20 00:12:12;;;;;;;962.28;897.83;;;;;;;11.75;71.86;101148.38;683936;28;45271;-64
2022/09/20 00:12:33;;;;;;;977.03;912.05;;;;;;;11.76;71.88;101144.66;683746;28;46439;-62
2022/09/20 00:12:55;;;;;;;967.03;902.45;;;;;;;11.75;72.07;101146.50;684493;28;22392;-65
2022/09/20 00:13:17;;;;;;;957.47;893.28;;;;;;;11.75;71.79;101154.59;685470;28;23426;-62
2022/09/20 00:13:39;;;;;;;957.30;893.00;;;;;;;11.72;71.90;101149.53;686534;28;46444;-63
2022/09/20 00:14:01;;;;;;;956.13;891.83;;;;;;;11.75;71.67;101140.25;686789;28;44427;-64
2022/09/20 00:14:24;;;;;;;968.55;903.95;;;;;;;11.75;71.58;101145.66;682530;28;69443;-65
2022/09/20 00:14:45;;;;;;;963.97;899.47;;;;;;;11.73;71.73;101140.41;686311;28;46339;-64
2022/09/20 00:15:07;;;;;;;959.45;895.10;;;;;;;11.73;71.56;101146.66;683601;28;46268;-64
2022/09/20 00:15:29;;;;;;;957.47;893.25;;;;;;;11.73;72.05;101138.53;683674;28;43701;-64
2022/09/20 00:15:51;;;;;;;964.30;899.78;;;;;;;11.75;71.86;101142.94;683738;28;46524;-62
2022/09/20 00:16:15;;;;;;;962.03;897.72;;;;;;;11.73;71.59;101138.53;684694;28;46329;-63
2022/09/20 00:16:38;;;;;;;971.22;906.65;;;;;;;11.75;71.72;101145.66;682246;28;90417;-62
2022/09/20 00:17:01;;;;;;;962.25;897.70;;;;;;;11.75;71.49;101146.50;683101;28;69355;-62
2022/09/20 00:17:25;;;;;;;972.28;907.42;;;;;;;11.74;71.69;101142.13;685851;28;59345;-65
2022/09/20 00:17:47;;;;;;;960.20;896.00;;;;;;;11.73;71.67;101141.25;687324;28;23475;-64
2022/09/20 00:18:08;;;;;;;957.20;893.05;;;;;;;11.73;71.54;101153.94;686771;28;44379;-64
2022/09/20 00:18:30;;;;;;;960.10;895.78;;;;;;;11.71;71.62;101151.41;687366;28;22196;-64
2022/09/20 00:18:53;;;;;;;952.65;888.60;;;;;;;11.71;71.52;101148.72;687050;28;44240;-60
2022/09/20 00:19:17;;;;;;;967.75;903.15;;;;;;;11.71;71.79;101143.28;688620;28;67138;-64
2022/09/20 00:19:39;;;;;;;957.53;893.25;;;;;;;11.70;71.69;101140.75;687732;28;90808;-62
2022/09/20 00:20:01;;;;;;;956.08;891.78;;;;;;;11.70;71.88;101149.72;689366;28;44372;-63
2022/09/20 00:20:23;;;;;;;970.75;906.10;;;;;;;11.69;71.45;101145.34;689941;28;28001;-64
2022/09/20 00:20:45;;;;;;;967.50;902.92;;;;;;;11.69;71.52;101149.88;689135;28;45207;-65
2022/09/20 00:21:06;;;;;;;952.80;888.80;;;;;;;11.68;71.70;101143.66;689428;28;45219;-62
2022/09/20 00:21:30;;;;;;;952.50;888.50;;;;;;;11.68;71.91;101149.06;686725;28;43976;-65
2022/09/20 00:21:51;;;;;;;967.45;902.80;;;;;;;11.69;71.47;101147.19;685104;28;67328;-63
2022/09/20 00:22:13;;;;;;;964.38;899.88;;;;;;;11.68;71.57;101146.34;688213;28;45371;-64
2022/09/20 00:22:34;;;;;;;950.35;886.40;;;;;;;11.68;71.97;101154.47;690205;28;22356;-62
2022/09/20 00:22:56;;;;;;;958.40;894.15;;;;;;;11.68;71.67;101148.22;690282;28;22356;-62
2022/09/20 00:23:19;;;;;;;958.25;893.95;;;;;;;11.68;71.79;101153.63;689333;28;44410;-64
2022/09/20 00:23:40;;;;;;;969.58;904.85;;;;;;;11.67;71.81;101150.06;688660;28;67014;-65
2022/09/20 00:24:03;;;;;;;960.63;896.33;;;;;;;11.67;71.47;101154.66;689335;28;46223;-64
2022/09/20 00:24:24;;;;;;;953.30;889.27;;;;;;;11.67;71.80;101152.78;689337;28;46404;-65
2022/09/20 00:24:46;;;;;;;944.58;880.92;;;;;;;11.68;71.41;101150.94;689364;28;44424;-62
2022/09/20 00:25:08;;;;;;;951.03;887.25;;;;;;;11.67;71.49;101144.66;690204;28;22431;-62
2022/09/20 00:25:30;;;;;;;955.13;891.08;;;;;;;11.67;71.73;101147.34;688492;28;69281;-63
2022/09/20 00:25:56;;;;;;;962.58;898.20;;;;;;;11.67;71.56;101146.53;689273;28;48153;-63
2022/09/20 00:26:17;;;;;;;955.65;891.47;;;;;;;11.67;71.49;101152.78;686930;28;115107;-64
2022/09/20 00:26:39;;;;;;;978.00;913.03;;;;;;;11.66;71.76;101150.25;689348;28;44118;-65
2022/09/20 00:27:01;;;;;;;958.22;893.78;;;;;;;11.65;71.53;101153.97;688103;28;44347;-63
2022/09/20 00:27:22;;;;;;;956.05;891.55;;;;;;;11.64;71.38;101155.81;688430;28;45014;-65
2022/09/20 00:27:44;;;;;;;951.70;887.60;;;;;;;11.63;71.73;101154.16;690100;28;23450;-63
2022/09/20 00:28:07;;;;;;;960.85;896.53;;;;;;;11.61;71.55;101156.16;689360;28;45221;-63
2022/09/20 00:28:28;;;;;;;951.30;887.20;;;;;;;11.62;71.41;101152.47;687174;28;69653;-64
2022/09/20 00:28:50;;;;;;;950.65;886.55;;;;;;;11.62;71.63;101157.88;689730;28;22222;-59
2022/09/20 00:29:12;;;;;;;961.65;897.28;;;;;;;11.63;71.80;101158.69;689492;28;44427;-63
2022/09/20 00:29:34;;;;;;;962.00;897.60;;;;;;;11.62;71.92;101157.88;688506;28;69343;-62
2022/09/20 00:29:55;;;;;;;966.85;902.28;;;;;;;11.63;71.77;101161.41;686897;28;22361;-64
2022/09/20 00:30:16;;;;;;;957.55;893.22;;;;;;;11.63;72.00;101156.00;687100;28;23504;-64
2022/09/20 00:30:39;;;;;;;957.55;893.30;;;;;;;11.62;71.57;101152.47;686416;28;45245;-60
2022/09/20 00:31:00;;;;;;;957.58;893.30;;;;;;;11.62;71.67;101159.75;686551;28;46904;-63
2022/09/20 00:31:22;;;;;;;945.47;881.60;;;;;;;11.62;71.94;101165.97;687186;28;22384;-62
2022/09/20 00:31:44;;;;;;;953.50;889.33;;;;;;;11.62;71.95;101157.03;687098;28;44404;-63
2022/09/20 00:32:05;;;;;;;962.63;898.25;;;;;;;11.61;72.05;101164.28;687658;28;44438;-64
2022/09/20 00:32:26;;;;;;;954.83;890.65;;;;;;;11.61;71.65;101156.16;684974;28;6747;-63
2022/09/20 00:32:48;;;;;;;955.13;891.03;;;;;;;11.61;71.83;101158.03;683788;28;46302;-65
2022/09/20 00:33:10;;;;;;;963.72;899.42;;;;;;;11.60;71.60;101154.50;684612;28;23389;-64
2022/09/20 00:35:06;;;;;;;957.65;893.38;;;;;;;11.60;71.64;101159.03;686197;28;137810;-64
2022/09/20 00:35:28;;;;;;;951.45;887.33;;;;;;;11.58;71.81;101155.69;686141;28;137456;-64
2022/09/20 00:35:49;;;;;;;957.65;893.35;;;;;;;11.58;71.46;101156.50;689260;28;44497;-62
2022/09/20 00:36:11;;;;;;;954.28;890.20;;;;;;;11.57;71.91;101149.44;690919;28;840;-63
2022/09/20 00:36:32;;;;;;;956.42;892.17;;;;;;;11.57;71.78;101156.69;689886;28;21167;-63
2022/09/20 00:36:54;;;;;;;959.17;894.70;;;;;;;11.56;71.56;101153.16;688163;28;46444;-63
2022/09/20 00:37:16;;;;;;;957.45;892.92;;;;;;;11.54;71.82;101158.72;689061;28;46394;-64
2022/09/20 00:37:39;;;;;;;959.60;895.22;;;;;;;11.55;71.53;101156.84;690160;28;22395;-64
2022/09/20 00:38:01;;;;;;;961.83;897.42;;;;;;;11.56;71.94;101157.72;687846;28;92164;-64
2022/09/20 00:38:24;;;;;;;966.17;901.63;;;;;;;11.52;71.58;101158.06;689095;28;44334;-64
2022/09/20 00:38:46;;;;;;;959.35;894.92;;;;;;;11.56;71.93;101157.72;688462;28;67491;-63
2022/09/20 00:39:10;;;;;;;961.53;897.13;;;;;;;11.55;72.00;101162.28;689047;28;46318;-64
2022/09/20 00:39:32;;;;;;;963.35;899.00;;;;;;;11.56;72.14;101155.03;684778;28;47271;-61
2022/09/20 00:39:54;;;;;;;958.63;894.25;;;;;;;11.56;72.01;101155.84;686438;28;45256;-64
2022/09/20 00:40:19;;;;;;;956.53;892.30;;;;;;;11.56;72.03;101153.16;686216;28;46399;-63
2022/09/20 00:40:41;;;;;;;948.50;884.53;;;;;;;11.56;72.00;101158.56;684002;28;115603;-62
2022/09/20 00:41:03;;;;;;;942.38;878.67;;;;;;;11.57;71.82;101151.28;686516;28;46401;-62
2022/09/20 00:41:25;;;;;;;950.92;887.03;;;;;;;11.56;71.88;101161.25;687761;28;46310;-62
2022/09/20 00:41:47;;;;;;;960.55;896.30;;;;;;;11.55;71.48;101159.56;688416;28;70212;-62
2022/09/20 00:42:11;;;;;;;958.13;893.85;;;;;;;11.54;71.38;101160.59;688718;28;42622;-63
2022/09/20 00:42:33;;;;;;;947.83;883.83;;;;;;;11.53;71.53;101158.91;687459;28;92101;-61
2022/09/20 00:42:54;;;;;;;949.72;885.70;;;;;;;11.52;71.65;101163.47;689377;28;45235;-61
2022/09/20 00:43:16;;;;;;;956.10;891.92;;;;;;;11.51;71.95;101164.50;690086;28;21526;-63
2022/09/20 00:43:40;;;;;;;956.97;892.72;;;;;;;11.52;71.92;101154.53;688363;28;69327;-62
2022/09/20 00:44:02;;;;;;;961.45;897.13;;;;;;;11.51;71.86;101156.38;688560;28;69440;-63
2022/09/20 00:44:55;;;;;;;945.33;881.55;;;;;;;11.51;71.91;101153.66;688470;28;69407;-63
2022/09/20 00:45:21;;;;;;;961.15;896.80;;;;;;;11.51;71.97;101164.50;671656;29;136020;-63
2022/09/20 00:45:43;;;;;;;952.95;888.80;;;;;;;11.50;72.01;101164.66;672541;29;138027;-62
2022/09/20 00:46:08;;;;;;;969.47;904.83;;;;;;;11.49;71.88;101166.53;675752;29;45257;-63
2022/09/20 00:46:33;;;;;;;960.17;895.85;;;;;;;11.48;72.01;101170.25;674059;29;92139;-63
2022/09/20 00:46:55;;;;;;;952.35;888.13;;;;;;;11.49;71.91;101157.59;671190;29;138090;-65
2022/09/20 00:47:24;;;;;;;953.05;888.80;;;;;;;11.47;71.77;101163.16;676165;29;22373;-63
2022/09/20 00:47:49;;;;;;;957.20;892.92;;;;;;;11.46;71.67;101158.75;670046;29;137763;-63
2022/09/20 00:48:12;;;;;;;951.00;886.97;;;;;;;11.47;71.96;101162.31;677953;28;114988;-64
2022/09/20 00:48:34;;;;;;;951.47;887.38;;;;;;;11.47;72.03;101162.31;685440;28;67496;-63
2022/09/20 00:48:59;;;;;;;953.03;888.95;;;;;;;11.47;71.73;101162.31;687099;28;22377;-62
2022/09/20 00:49:24;;;;;;;950.90;886.95;;;;;;;11.46;71.64;101161.47;683222;28;136500;-63
2022/09/20 00:49:45;;;;;;;946.80;883.08;;;;;;;11.45;71.66;101154.34;686241;28;115647;-64
2022/09/20 00:50:17;;;;;;;960.40;896.08;;;;;;;11.45;72.16;101164.34;689205;28;45275;-61
2022/09/20 00:50:42;;;;;;;956.65;892.42;;;;;;;11.45;72.23;101167.03;686141;28;135993;-63
2022/09/20 00:51:07;;;;;;;956.67;892.33;;;;;;;11.46;72.01;101166.03;686856;28;114951;-63
2022/09/20 00:51:31;;;;;;;952.13;887.25;;;;;;;11.44;72.07;101160.81;685234;28;114736;-64
2022/09/20 00:51:56;;;;;;;947.08;883.10;;;;;;;11.45;72.09;101165.19;687026;28;92238;-62
2022/09/20 00:52:18;;;;;;;961.28;896.83;;;;;;;11.46;71.84;101158.75;686870;28;113631;-63
2022/09/20 00:52:42;;;;;;;943.42;879.65;;;;;;;11.47;72.02;101163.16;689256;28;46572;-64
2022/09/20 00:53:08;;;;;;;957.88;893.60;;;;;;;11.47;72.04;101163.16;687481;28;90715;-64
2022/09/20 00:53:33;;;;;;;950.17;886.10;;;;;;;11.47;72.16;101159.59;685212;28;161023;-63
2022/09/20 00:53:55;;;;;;;954.97;890.75;;;;;;;11.46;72.11;101158.75;686851;28;113566;-63
2022/09/20 00:54:18;;;;;;;958.60;894.30;;;;;;;11.48;71.95;101164.00;689271;28;46312;-63
2022/09/20 00:54:39;;;;;;;970.17;905.40;;;;;;;11.47;71.80;101154.19;688411;28;67483;-63
2022/09/20 00:55:03;;;;;;;947.30;883.35;;;;;;;11.47;72.08;101157.75;690135;28;21489;-62
2022/09/20 00:55:25;;;;;;;961.58;897.13;;;;;;;11.48;71.72;101158.59;686822;28;115170;-63
2022/09/20 00:55:50;;;;;;;955.33;891.13;;;;;;;11.47;71.73;101155.06;689186;28;46288;-63
2022/09/20 00:56:14;;;;;;;955.67;891.53;;;;;;;11.47;71.71;101157.75;687619;28;92285;-63
2022/09/20 00:56:39;;;;;;;961.05;896.67;;;;;;;11.48;72.05;101156.72;686915;28;115359;-64
2022/09/20 00:57:00;;;;;;;961.65;896.92;;;;;;;11.48;71.76;101159.41;685720;28;114897;-63
2022/09/20 00:57:22;;;;;;;953.78;889.38;;;;;;;11.48;72.01;101156.72;689873;28;22294;-63
2022/09/20 00:57:44;;;;;;;957.78;893.58;;;;;;;11.48;72.02;101154.00;689095;28;46342;-65
2022/09/20 00:58:07;;;;;;;961.28;896.97;;;;;;;11.48;71.59;101156.72;689326;28;45251;-64
2022/09/20 00:58:31;;;;;;;949.72;885.70;;;;;;;11.49;71.77;101160.28;688962;28;44386;-65
2022/09/20 00:58:59;;;;;;;944.15;880.22;;;;;;;11.50;71.56;101153.84;687763;28;90323;-64
2022/09/20 00:59:22;;;;;;;944.97;881.08;;;;;;;11.49;71.61;101154.88;685939;28;137676;-64
2022/09/20 00:59:46;;;;;;;954.08;889.90;;;;;;;11.49;71.81;101157.59;688466;28;69073;-63
2022/09/20 01:00:09;;;;;;;956.08;891.88;;;;;;;11.49;71.50;101157.59;686669;28;114841;-63
2022/09/20 01:00:31;;;;;;;952.35;888.15;;;;;;;11.49;71.61;101154.88;688335;28;69436;-63
2022/09/20 01:00:54;;;;;;;954.05;889.88;;;;;;;11.48;71.88;101161.28;690072;28;21571;-64
2022/09/20 01:01:16;;;;;;;943.78;879.92;;;;;;;11.47;71.62;101159.59;688278;28;69417;-64
2022/09/20 01:01:37;;;;;;;945.20;881.30;;;;;;;11.46;71.84;101158.75;689191;28;44446;-63
2022/09/20 01:02:01;;;;;;;942.55;878.78;;;;;;;11.46;71.87;101155.22;689271;28;22408;-65
2022/09/20 01:02:26;;;;;;;935.03;871.47;;;;;;;11.48;72.02;101151.31;685044;28;90729;-63
2022/09/20 01:02:51;;;;;;;956.13;891.88;;;;;;;11.47;71.83;101159.59;685823;28;115821;-64
2022/09/20 01:03:13;;;;;;;957.25;892.92;;;;;;;11.48;71.75;101164.00;687027;28;113576;-63
2022/09/20 01:03:38;;;;;;;955.70;891.45;;;;;;;11.48;71.78;101158.59;688789;28;45290;-64
2022/09/20 01:04:00;;;;;;;961.50;897.10;;;;;;;11.48;71.78;101154.00;687793;28;92264;-63
2022/09/20 01:04:24;;;;;;;964.00;899.50;;;;;;;11.49;71.99;101158.41;689100;28;46267;-62
2022/09/20 01:04:46;;;;;;;949.20;885.20;;;;;;;11.49;71.49;101165.69;687614;28;92315;-61
2022/09/20 01:05:09;;;;;;;947.95;884.00;;;;;;;11.48;71.41;101159.41;689363;28;45338;-64
2022/09/20 01:05:31;;;;;;;944.77;881.03;;;;;;;11.49;71.84;101157.59;687508;28;92328;-63
2022/09/20 01:05:53;;;;;;;944.05;880.35;;;;;;;11.48;71.61;101156.72;689117;28;46474;-63
2022/09/20 01:06:15;;;;;;;942.42;878.83;;;;;;;11.48;71.58;101159.41;689330;28;45242;-61
2022/09/20 01:06:36;;;;;;;937.90;874.42;;;;;;;11.48;71.74;101159.41;689217;28;46246;-64
2022/09/20 01:07:00;;;;;;;932.78;869.25;;;;;;;11.49;71.59;101161.13;688826;28;23520;-63
2022/09/20 01:07:22;;;;;;;952.83;888.45;;;;;;;11.45;71.75;101154.34;686743;28;113565;-64
2022/09/20 01:07:44;;;;;;;958.88;894.55;;;;;;;11.48;71.45;101151.31;689129;28;45234;-61
2022/09/20 01:08:06;;;;;;;955.45;890.92;;;;;;;11.48;71.70;101161.28;687809;28;44558;-64
2022/09/20 01:08:28;;;;;;;951.80;886.97;;;;;;;11.46;71.45;101156.06;689876;28;22386;-64
2022/09/20 01:08:53;;;;;;;936.38;872.75;;;;;;;11.45;71.73;101151.66;685817;28;69245;-62
2022/09/20 01:09:15;;;;;;;942.30;878.50;;;;;;;11.45;71.45;101158.94;685374;28;115869;-64
2022/09/20 01:09:36;;;;;;;941.35;877.65;;;;;;;11.45;71.61;101159.75;690410;28;8398;-65
2022/09/20 01:09:57;;;;;;;951.45;887.35;;;;;;;11.44;71.53;101162.66;690084;28;22375;-62
2022/09/20 01:10:19;;;;;;;950.95;886.85;;;;;;;11.43;71.79;101161.81;689128;28;46429;-64
2022/09/20 01:10:41;;;;;;;965.97;901.40;;;;;;;11.44;71.50;101163.50;689233;28;45294;-62
2022/09/20 01:11:02;;;;;;;968.42;903.78;;;;;;;11.44;71.77;101163.50;689272;28;44217;-63
2022/09/20 01:11:24;;;;;;;962.47;898.00;;;;;;;11.45;71.72;101158.94;690052;28;21535;-61
2022/09/20 01:11:45;;;;;;;958.17;893.85;;;;;;;11.43;71.78;101159.09;689869;28;22382;-62
2022/09/20 01:12:12;;;;;;;938.28;874.65;;;;;;;11.44;71.85;101163.50;688515;28;46284;-64
2022/09/20 01:12:34;;;;;;;950.13;885.97;;;;;;;11.41;71.51;101160.28;682929;28;138012;-63
2022/09/20 01:12:55;;;;;;;933.90;870.40;;;;;;;11.42;71.41;101157.41;686232;28;46464;-61
2022/09/20 01:13:17;;;;;;;947.83;883.90;;;;;;;11.42;71.74;101160.09;687105;28;22405;-64
2022/09/20 01:13:38;;;;;;;941.97;878.40;;;;;;;11.42;71.36;101161.97;686368;28;44388;-63
2022/09/20 01:14:00;;;;;;;934.95;871.58;;;;;;;11.41;71.50;101161.16;687082;28;22315;-62
2022/09/20 01:14:22;;;;;;;951.22;887.22;;;;;;;11.40;71.71;101164.84;687025;28;22372;-63
2022/09/20 01:14:46;;;;;;;937.22;873.63;;;;;;;11.40;71.96;101156.75;685764;28;69151;-63
2022/09/20 01:15:09;;;;;;;949.13;885.05;;;;;;;11.39;71.76;101160.44;684844;28;92306;-63
2022/09/20 01:15:31;;;;;;;952.78;888.58;;;;;;;11.40;71.58;101170.25;685742;28;67471;-65
2022/09/20 01:15:52;;;;;;;948.75;884.75;;;;;;;11.40;71.96;101164.03;686429;28;46286;-64
2022/09/20 01:16:16;;;;;;;964.78;900.20;;;;;;;11.40;71.90;101158.63;687446;28;22177;-64
2022/09/20 01:16:37;;;;;;;960.50;896.05;;;;;;;11.40;71.76;101164.03;682305;28;92267;-63
2022/09/20 01:17:02;;;;;;;951.95;887.70;;;;;;;11.41;71.94;101160.28;683598;28;21530;-64
2022/09/20 01:17:25;;;;;;;959.88;895.28;;;;;;;11.41;71.93;101160.28;681347;28;115099;-62
2022/09/20 01:17:50;;;;;;;956.63;892.28;;;;;;;11.40;71.81;101158.63;683049;28;69496;-64
2022/09/20 01:18:12;;;;;;;954.22;890.05;;;;;;;11.39;71.86;101163.16;681557;28;115209;-64
2022/09/20 01:18:34;;;;;;;957.35;893.05;;;;;;;11.39;71.58;101162.31;683639;28;46279;-61
2022/09/20 01:18:56;;;;;;;953.83;889.63;;;;;;;11.38;71.58;101164.19;684914;28;44541;-63
2022/09/20 01:19:22;;;;;;;956.40;892.22;;;;;;;11.38;71.90;101157.91;685739;28;69293;-63
2022/09/20 01:19:48;;;;;;;937.95;874.38;;;;;;;11.39;71.84;101165.03;684149;28;114962;-63
2022/09/20 01:20:13;;;;;;;946.70;882.80;;;;;;;11.39;71.74;101159.63;683256;28;137885;-63
2022/09/20 01:20:36;;;;;;;940.97;877.22;;;;;;;11.40;71.72;101161.31;684188;28;113245;-64
2022/09/20 01:20:59;;;;;;;951.38;887.28;;;;;;;11.39;72.02;101163.16;686353;28;45405;-63
2022/09/20 01:21:21;;;;;;;944.28;880.55;;;;;;;11.40;72.04;101167.56;684952;28;90647;-64
2022/09/20 01:21:44;;;;;;;947.10;883.22;;;;;;;11.41;72.09;101161.16;687320;28;23427;-62
2022/09/20 01:22:08;;;;;;;956.35;892.22;;;;;;;11.40;71.83;101164.84;685011;28;68369;-63
2022/09/20 01:22:43;;;;;;;959.45;895.22;;;;;;;11.40;71.60;101159.44;684142;28;115068;-63
2022/09/20 01:23:31;;;;;;;949.63;885.58;;;;;;;11.41;71.86;101160.28;682547;28;160259;-64
2022/09/20 01:23:59;;;;;;;943.42;879.40;;;;;;;11.40;71.52;101156.75;682446;28;137614;-64
2022/09/20 01:24:24;;;;;;;954.72;890.40;;;;;;;11.39;71.35;101160.44;680453;28;136148;-65
2022/09/20 01:24:49;;;;;;;958.80;894.38;;;;;;;11.38;71.42;101166.91;682037;28;113553;-63
2022/09/20 01:25:15;;;;;;;961.38;896.95;;;;;;;11.38;71.41;101169.59;684218;28;115356;-63
2022/09/20 01:25:57;;;;;;;947.50;883.58;;;;;;;11.36;71.92;101163.50;683376;28;138453;-63
2022/09/20 01:26:31;;;;;;;955.42;891.10;;;;;;;11.35;71.86;101167.25;680528;28;138603;-65
2022/09/20 01:27:13;;;;;;;955.33;891.05;;;;;;;11.36;71.70;101160.78;679581;28;137717;-66
2022/09/20 01:27:40;;;;;;;960.50;896.05;;;;;;;11.36;71.60;101163.50;681791;28;137329;-63
2022/09/20 01:28:07;;;;;;;949.45;885.53;;;;;;;11.35;71.44;101157.25;685186;28;62142;-64
2022/09/20 01:28:29;;;;;;;950.45;886.35;;;;;;;11.34;71.73;101155.56;684002;28;20424;-63
2022/09/20 01:28:57;;;;;;;943.65;879.78;;;;;;;11.34;71.91;101160.97;680878;29;46345;-63
2022/09/20 01:29:30;;;;;;;954.08;889.92;;;;;;;11.34;71.86;101162.84;677774;29;137615;-64
2022/09/20 01:30:01;;;;;;;968.33;903.75;;;;;;;11.32;71.74;101159.47;677804;29;137722;-62
2022/09/20 01:30:25;;;;;;;950.67;886.70;;;;;;;11.32;71.84;101159.47;678941;28;137404;-64
2022/09/20 01:30:49;;;;;;;946.30;882.50;;;;;;;11.32;71.83;101159.47;681115;28;90623;-62
2022/09/20 01:31:15;;;;;;;949.63;885.72;;;;;;;11.30;71.89;101156.94;682135;28;92278;-62
2022/09/20 01:31:40;;;;;;;953.55;889.42;;;;;;;11.31;71.42;101169.41;680546;28;137308;-64
2022/09/20 01:32:03;;;;;;;943.20;879.47;;;;;;;11.30;71.70;101162.34;679733;28;138203;-63
2022/09/20 01:32:33;;;;;;;953.70;889.55;;;;;;;11.30;71.65;101164.19;685572;28;45223;-64
2022/09/20 01:33:05;;;;;;;953.47;889.28;;;;;;;11.30;71.64;101170.47;683379;28;137413;-62
2022/09/20 01:33:30;;;;;;;952.00;887.85;;;;;;;11.29;71.39;101157.94;682510;28;161443;-61
2022/09/20 01:33:53;;;;;;;957.67;893.38;;;;;;;11.28;71.64;101167.06;685606;28;74379;-63
2022/09/20 01:34:17;;;;;;;948.63;884.65;;;;;;;11.27;71.73;101162.69;685020;28;91814;-64
2022/09/20 01:34:45;;;;;;;946.03;882.08;;;;;;;11.24;71.52;101159.47;684855;28;92181;-62
2022/09/20 01:35:06;;;;;;;947.03;883.08;;;;;;;11.24;71.59;101160.31;683413;28;137861;-62
2022/09/20 01:35:28;;;;;;;956.25;892.00;;;;;;;11.22;71.90;101162.34;686430;28;44412;-64
2022/09/20 01:35:52;;;;;;;966.03;901.45;;;;;;;11.21;71.96;101163.38;686425;28;45197;-64
2022/09/20 01:36:19;;;;;;;944.10;880.30;;;;;;;11.21;71.87;101162.50;684918;28;93019;-63
2022/09/20 01:36:43;;;;;;;950.23;886.13;;;;;;;11.18;71.51;101164.53;682456;28;161082;-63
2022/09/20 01:37:10;;;;;;;947.83;883.35;;;;;;;11.17;72.02;101170.13;681584;28;113631;-62
2022/09/20 01:37:35;;;;;;;953.90;889.28;;;;;;;11.16;72.36;101165.75;682870;28;138973;-65
2022/09/20 01:38:08;;;;;;;950.97;886.90;;;;;;;11.14;71.61;101171.31;684071;28;115382;-65
2022/09/20 01:38:36;;;;;;;951.47;887.47;;;;;;;11.12;71.65;101167.09;683156;28;137335;-64
2022/09/20 01:39:04;;;;;;;948.15;884.20;;;;;;;11.10;72.16;101169.13;683153;28;136238;-63
2022/09/20 01:39:34;;;;;;;959.08;894.75;;;;;;;11.09;72.01;101176.38;680661;28;137791;-64
2022/09/20 01:40:03;;;;;;;947.65;883.67;;;;;;;11.07;71.99;101170.31;683080;28;59898;-64
2022/09/20 01:40:29;;;;;;;953.25;889.10;;;;;;;11.04;71.90;101161.69;680305;28;138047;-65
2022/09/20 01:40:58;;;;;;;952.47;888.28;;;;;;;11.05;72.02;101166.94;680429;28;136073;-63
2022/09/20 01:41:22;;;;;;;942.75;878.85;;;;;;;11.03;72.25;101168.94;680829;28;159180;-65
2022/09/20 01:41:48;;;;;;;952.17;888.05;;;;;;;11.03;72.00;101171.66;684939;28;92294;-64
2022/09/20 01:42:12;;;;;;;953.92;889.63;;;;;;;11.02;71.95;101169.97;681925;28;156866;-65
2022/09/20 01:42:37;;;;;;;950.65;886.55;;;;;;;11.00;72.47;101166.59;685717;28;69228;-65
2022/09/20 01:43:08;;;;;;;950.72;886.60;;;;;;;11.00;72.50;101172.00;685865;28;61329;-65
2022/09/20 01:43:34;;;;;;;962.40;897.88;;;;;;;10.98;72.24;101174.84;683071;28;138077;-64
2022/09/20 01:44:01;;;;;;;946.38;882.40;;;;;;;10.98;72.47;101174.84;683307;28;137762;-64
2022/09/20 01:44:30;;;;;;;950.42;886.33;;;;;;;10.97;72.18;101173.19;683293;28;137632;-65
2022/09/20 01:44:55;;;;;;;963.25;898.70;;;;;;;10.96;72.07;101167.94;685527;28;136001;-65
2022/09/20 01:45:21;;;;;;;950.00;885.78;;;;;;;10.95;72.25;101171.66;682747;28;136392;-64
2022/09/20 01:45:47;;;;;;;937.13;873.47;;;;;;;10.93;72.67;101165.59;683223;28;136496;-65
2022/09/20 01:46:23;;;;;;;933.25;869.92;;;;;;;10.94;72.34;101175.34;683878;28;114956;-64
2022/09/20 01:46:46;;;;;;;966.22;901.72;;;;;;;10.94;72.51;101170.81;683268;28;137685;-65
2022/09/20 01:47:13;;;;;;;961.13;896.33;;;;;;;10.95;72.41;101174.34;684405;28;63663;-63
2022/09/20 01:47:38;;;;;;;958.05;893.63;;;;;;;10.94;72.51;101168.13;683395;28;136243;-65
2022/09/20 01:48:08;;;;;;;951.63;887.53;;;;;;;10.95;72.43;101172.50;682648;28;114534;-64
2022/09/20 01:48:33;;;;;;;955.15;890.85;;;;;;;10.95;72.37;101177.06;683025;28;136001;-63